sensor_id;sensor_type;location;lat;lon;timestamp;P1;durP1;ratioP1;P2;durP2;ratioP2
17790;SDS011;9019;48.132;-1.210;2023-07-16T00:00:15;29.33;;;14.57;;
17790;SDS011;9019;48.132;-1.210;2023-07-16T00:02:44;25.17;;;13.67;;
17790;SDS011;9019;48.132;-1.210;2023-07-16T00:05:11;23.20;;;14.30;;
17790;SDS011;9019;48.132;-1.210;2023-07-16T00:07:39;28.80;;;14.70;;
17790;SDS011;9019;48.132;-1.210;2023-07-16T00:10:06;28.10;;;14.80;;
17790;SDS011;9019;48.132;-1.210;2023-07-16T00:12:34;24.50;;;14.23;;
17790;SDS011;9019;48.132;-1.210;2023-07-16T00:15:02;24.13;;;13.53;;
17790;SDS011;9019;48.132;-1.210;2023-07-16T00:17:29;22.27;;;13.23;;
17790;SDS011;9019;48.132;-1.210;2023-07-16T00:19:57;32.03;;;14.30;;
17790;SDS011;9019;48.132;-1.210;2023-07-16T00:22:24;23.37;;;13.20;;
17790;SDS011;9019;48.132;-1.210;2023-07-16T00:24:51;22.90;;;12.27;;
17790;SDS011;9019;48.132;-1.210;2023-07-16T00:27:19;25.63;;;12.50;;
17790;SDS011;9019;48.132;-1.210;2023-07-16T00:29:47;26.70;;;12.87;;
17790;SDS011;9019;48.132;-1.210;2023-07-16T00:32:14;24.90;;;12.17;;
17790;SDS011;9019;48.132;-1.210;2023-07-16T00:34:42;24.83;;;12.60;;
17790;SDS011;9019;48.132;-1.210;2023-07-16T00:37:09;23.80;;;12.10;;
17790;SDS011;9019;48.132;-1.210;2023-07-16T00:39:36;21.97;;;11.33;;
17790;SDS011;9019;48.132;-1.210;2023-07-16T00:42:04;27.53;;;11.80;;
17790;SDS011;9019;48.132;-1.210;2023-07-16T00:44:31;24.27;;;11.57;;
17790;SDS011;9019;48.132;-1.210;2023-07-16T00:46:59;25.20;;;11.50;;
17790;SDS011;9019;48.132;-1.210;2023-07-16T00:49:27;24.57;;;11.30;;
17790;SDS011;9019;48.132;-1.210;2023-07-16T00:51:54;25.00;;;11.50;;
17790;SDS011;9019;48.132;-1.210;2023-07-16T00:54:22;24.87;;;11.07;;
17790;SDS011;9019;48.132;-1.210;2023-07-16T00:56:49;22.80;;;10.93;;
17790;SDS011;9019;48.132;-1.210;2023-07-16T00:59:16;25.63;;;11.10;;
17790;SDS011;9019;48.132;-1.210;2023-07-16T01:01:43;26.17;;;11.60;;
17790;SDS011;9019;48.132;-1.210;2023-07-16T01:04:12;21.80;;;11.17;;
17790;SDS011;9019;48.132;-1.210;2023-07-16T01:06:39;26.67;;;10.73;;
17790;SDS011;9019;48.132;-1.210;2023-07-16T01:09:09;25.10;;;10.43;;
17790;SDS011;9019;48.132;-1.210;2023-07-16T01:11:37;24.63;;;10.90;;
17790;SDS011;9019;48.132;-1.210;2023-07-16T01:14:05;27.07;;;10.53;;
17790;SDS011;9019;48.132;-1.210;2023-07-16T01:16:34;23.63;;;11.63;;
17790;SDS011;9019;48.132;-1.210;2023-07-16T01:19:01;22.33;;;10.07;;
17790;SDS011;9019;48.132;-1.210;2023-07-16T01:21:31;20.97;;;10.47;;
17790;SDS011;9019;48.132;-1.210;2023-07-16T01:24:07;28.13;;;10.93;;
17790;SDS011;9019;48.132;-1.210;2023-07-16T01:26:48;24.67;;;11.00;;
17790;SDS011;9019;48.132;-1.210;2023-07-16T01:29:27;24.00;;;11.40;;
17790;SDS011;9019;48.132;-1.210;2023-07-16T01:31:55;19.70;;;10.83;;
17790;SDS011;9019;48.132;-1.210;2023-07-16T01:34:23;24.57;;;9.90;;
17790;SDS011;9019;48.132;-1.210;2023-07-16T01:36:51;25.27;;;10.77;;
17790;SDS011;9019;48.132;-1.210;2023-07-16T01:39:18;24.43;;;10.17;;
17790;SDS011;9019;48.132;-1.210;2023-07-16T01:41:46;24.20;;;11.13;;
17790;SDS011;9019;48.132;-1.210;2023-07-16T01:44:13;28.20;;;11.27;;
17790;SDS011;9019;48.132;-1.210;2023-07-16T01:46:41;25.90;;;10.87;;
17790;SDS011;9019;48.132;-1.210;2023-07-16T01:49:08;26.53;;;10.23;;
17790;SDS011;9019;48.132;-1.210;2023-07-16T01:51:36;23.87;;;10.53;;
17790;SDS011;9019;48.132;-1.210;2023-07-16T01:54:03;25.90;;;10.37;;
17790;SDS011;9019;48.132;-1.210;2023-07-16T01:56:30;24.97;;;10.10;;
17790;SDS011;9019;48.132;-1.210;2023-07-16T01:58:58;19.17;;;9.87;;
17790;SDS011;9019;48.132;-1.210;2023-07-16T02:01:25;25.70;;;10.37;;
17790;SDS011;9019;48.132;-1.210;2023-07-16T02:03:54;22.83;;;10.57;;
17790;SDS011;9019;48.132;-1.210;2023-07-16T02:06:21;22.20;;;10.20;;
17790;SDS011;9019;48.132;-1.210;2023-07-16T02:08:48;20.97;;;10.13;;
17790;SDS011;9019;48.132;-1.210;2023-07-16T02:11:15;30.13;;;10.27;;
17790;SDS011;9019;48.132;-1.210;2023-07-16T02:13:42;23.80;;;9.60;;
17790;SDS011;9019;48.132;-1.210;2023-07-16T02:16:09;26.00;;;9.67;;
17790;SDS011;9019;48.132;-1.210;2023-07-16T02:18:37;22.20;;;9.77;;
17790;SDS011;9019;48.132;-1.210;2023-07-16T02:21:05;26.60;;;10.37;;
17790;SDS011;9019;48.132;-1.210;2023-07-16T02:23:32;25.33;;;10.10;;
17790;SDS011;9019;48.132;-1.210;2023-07-16T02:26:00;25.00;;;10.47;;
17790;SDS011;9019;48.132;-1.210;2023-07-16T02:28:27;24.03;;;10.40;;
17790;SDS011;9019;48.132;-1.210;2023-07-16T02:30:54;29.37;;;10.07;;
17790;SDS011;9019;48.132;-1.210;2023-07-16T02:33:21;25.73;;;9.57;;
17790;SDS011;9019;48.132;-1.210;2023-07-16T02:35:49;22.80;;;9.70;;
17790;SDS011;9019;48.132;-1.210;2023-07-16T02:38:18;26.60;;;9.93;;
17790;SDS011;9019;48.132;-1.210;2023-07-16T02:40:46;24.23;;;9.47;;
17790;SDS011;9019;48.132;-1.210;2023-07-16T02:43:13;30.67;;;9.87;;
17790;SDS011;9019;48.132;-1.210;2023-07-16T02:45:41;22.43;;;9.50;;
17790;SDS011;9019;48.132;-1.210;2023-07-16T02:48:08;24.23;;;9.83;;
17790;SDS011;9019;48.132;-1.210;2023-07-16T02:50:35;27.27;;;9.80;;
17790;SDS011;9019;48.132;-1.210;2023-07-16T02:53:03;23.20;;;9.50;;
17790;SDS011;9019;48.132;-1.210;2023-07-16T02:55:32;21.77;;;9.33;;
17790;SDS011;9019;48.132;-1.210;2023-07-16T02:58:01;18.70;;;8.57;;
17790;SDS011;9019;48.132;-1.210;2023-07-16T03:00:29;22.83;;;9.17;;
17790;SDS011;9019;48.132;-1.210;2023-07-16T03:02:56;24.00;;;9.03;;
17790;SDS011;9019;48.132;-1.210;2023-07-16T03:05:24;25.13;;;10.13;;
17790;SDS011;9019;48.132;-1.210;2023-07-16T03:07:52;23.83;;;9.30;;
17790;SDS011;9019;48.132;-1.210;2023-07-16T03:10:19;24.13;;;9.37;;
17790;SDS011;9019;48.132;-1.210;2023-07-16T03:12:48;20.40;;;8.33;;
17790;SDS011;9019;48.132;-1.210;2023-07-16T03:15:15;25.27;;;8.90;;
17790;SDS011;9019;48.132;-1.210;2023-07-16T03:17:42;23.63;;;9.23;;
17790;SDS011;9019;48.132;-1.210;2023-07-16T03:20:10;23.60;;;9.07;;
17790;SDS011;9019;48.132;-1.210;2023-07-16T03:22:38;25.07;;;9.03;;
17790;SDS011;9019;48.132;-1.210;2023-07-16T03:25:05;24.40;;;9.60;;
17790;SDS011;9019;48.132;-1.210;2023-07-16T03:27:33;23.53;;;9.27;;
17790;SDS011;9019;48.132;-1.210;2023-07-16T03:30:01;25.20;;;8.83;;
17790;SDS011;9019;48.132;-1.210;2023-07-16T03:32:29;24.67;;;9.37;;
17790;SDS011;9019;48.132;-1.210;2023-07-16T03:34:56;28.13;;;9.57;;
17790;SDS011;9019;48.132;-1.210;2023-07-16T03:37:23;21.23;;;9.07;;
17790;SDS011;9019;48.132;-1.210;2023-07-16T03:39:50;28.20;;;10.07;;
17790;SDS011;9019;48.132;-1.210;2023-07-16T03:42:17;26.57;;;9.30;;
17790;SDS011;9019;48.132;-1.210;2023-07-16T03:44:47;21.97;;;8.93;;
17790;SDS011;9019;48.132;-1.210;2023-07-16T03:47:15;22.57;;;8.93;;
17790;SDS011;9019;48.132;-1.210;2023-07-16T03:49:43;28.17;;;9.93;;
17790;SDS011;9019;48.132;-1.210;2023-07-16T03:52:10;25.60;;;9.70;;
17790;SDS011;9019;48.132;-1.210;2023-07-16T03:54:37;21.43;;;9.47;;
17790;SDS011;9019;48.132;-1.210;2023-07-16T03:57:04;20.70;;;8.93;;
17790;SDS011;9019;48.132;-1.210;2023-07-16T03:59:32;27.73;;;9.03;;
17790;SDS011;9019;48.132;-1.210;2023-07-16T04:01:59;22.40;;;9.37;;
17790;SDS011;9019;48.132;-1.210;2023-07-16T04:04:27;23.50;;;9.10;;
17790;SDS011;9019;48.132;-1.210;2023-07-16T04:06:54;24.00;;;8.57;;
17790;SDS011;9019;48.132;-1.210;2023-07-16T04:09:22;26.33;;;9.57;;
17790;SDS011;9019;48.132;-1.210;2023-07-16T04:11:49;25.97;;;9.03;;
17790;SDS011;9019;48.132;-1.210;2023-07-16T04:14:16;24.83;;;8.73;;
17790;SDS011;9019;48.132;-1.210;2023-07-16T04:16:44;20.07;;;8.50;;
17790;SDS011;9019;48.132;-1.210;2023-07-16T04:19:11;27.30;;;8.80;;
17790;SDS011;9019;48.132;-1.210;2023-07-16T04:21:39;22.07;;;8.90;;
17790;SDS011;9019;48.132;-1.210;2023-07-16T04:24:06;21.93;;;8.37;;
17790;SDS011;9019;48.132;-1.210;2023-07-16T04:26:34;24.10;;;8.50;;
17790;SDS011;9019;48.132;-1.210;2023-07-16T04:29:01;24.60;;;8.93;;
17790;SDS011;9019;48.132;-1.210;2023-07-16T04:31:28;20.60;;;8.80;;
17790;SDS011;9019;48.132;-1.210;2023-07-16T04:33:55;25.40;;;8.97;;
17790;SDS011;9019;48.132;-1.210;2023-07-16T04:36:22;25.87;;;7.97;;
17790;SDS011;9019;48.132;-1.210;2023-07-16T04:38:51;24.17;;;8.00;;
17790;SDS011;9019;48.132;-1.210;2023-07-16T04:41:18;19.63;;;7.77;;
17790;SDS011;9019;48.132;-1.210;2023-07-16T04:43:45;24.00;;;8.23;;
17790;SDS011;9019;48.132;-1.210;2023-07-16T04:46:12;25.03;;;7.77;;
17790;SDS011;9019;48.132;-1.210;2023-07-16T04:48:41;18.90;;;8.03;;
17790;SDS011;9019;48.132;-1.210;2023-07-16T04:51:08;25.67;;;8.43;;
17790;SDS011;9019;48.132;-1.210;2023-07-16T04:53:35;23.37;;;7.43;;
17790;SDS011;9019;48.132;-1.210;2023-07-16T04:56:04;27.70;;;7.67;;
17790;SDS011;9019;48.132;-1.210;2023-07-16T04:58:35;24.60;;;7.80;;
17790;SDS011;9019;48.132;-1.210;2023-07-16T05:01:02;21.37;;;7.47;;
17790;SDS011;9019;48.132;-1.210;2023-07-16T05:03:30;22.80;;;8.40;;
17790;SDS011;9019;48.132;-1.210;2023-07-16T05:05:57;22.03;;;7.73;;
17790;SDS011;9019;48.132;-1.210;2023-07-16T05:08:24;16.07;;;7.30;;
17790;SDS011;9019;48.132;-1.210;2023-07-16T05:10:51;21.70;;;7.77;;
17790;SDS011;9019;48.132;-1.210;2023-07-16T05:13:20;25.03;;;8.00;;
17790;SDS011;9019;48.132;-1.210;2023-07-16T05:15:47;21.67;;;8.00;;
17790;SDS011;9019;48.132;-1.210;2023-07-16T05:18:15;27.40;;;9.00;;
17790;SDS011;9019;48.132;-1.210;2023-07-16T05:20:42;23.73;;;8.43;;
17790;SDS011;9019;48.132;-1.210;2023-07-16T05:23:10;24.27;;;7.60;;
17790;SDS011;9019;48.132;-1.210;2023-07-16T05:25:37;25.20;;;8.40;;
17790;SDS011;9019;48.132;-1.210;2023-07-16T05:28:04;21.50;;;8.10;;
17790;SDS011;9019;48.132;-1.210;2023-07-16T05:30:33;22.57;;;8.13;;
17790;SDS011;9019;48.132;-1.210;2023-07-16T05:33:00;21.67;;;8.57;;
17790;SDS011;9019;48.132;-1.210;2023-07-16T05:35:28;23.77;;;8.03;;
17790;SDS011;9019;48.132;-1.210;2023-07-16T05:37:55;23.57;;;9.23;;
17790;SDS011;9019;48.132;-1.210;2023-07-16T05:40:22;19.43;;;8.47;;
17790;SDS011;9019;48.132;-1.210;2023-07-16T05:42:49;21.13;;;8.00;;
17790;SDS011;9019;48.132;-1.210;2023-07-16T05:45:16;21.10;;;8.33;;
17790;SDS011;9019;48.132;-1.210;2023-07-16T05:47:45;20.17;;;8.23;;
17790;SDS011;9019;48.132;-1.210;2023-07-16T05:50:12;20.17;;;7.87;;
17790;SDS011;9019;48.132;-1.210;2023-07-16T05:52:39;23.90;;;8.27;;
17790;SDS011;9019;48.132;-1.210;2023-07-16T05:55:07;20.37;;;7.93;;
17790;SDS011;9019;48.132;-1.210;2023-07-16T05:57:34;24.35;;;8.30;;
17790;SDS011;9019;48.132;-1.210;2023-07-16T06:00:01;20.33;;;8.85;;
17790;SDS011;9019;48.132;-1.210;2023-07-16T06:02:29;20.27;;;7.77;;
17790;SDS011;9019;48.132;-1.210;2023-07-16T06:04:58;23.05;;;8.18;;
17790;SDS011;9019;48.132;-1.210;2023-07-16T06:07:25;24.10;;;8.65;;
17790;SDS011;9019;48.132;-1.210;2023-07-16T06:09:52;23.00;;;8.75;;
17790;SDS011;9019;48.132;-1.210;2023-07-16T06:12:19;16.17;;;8.20;;
17790;SDS011;9019;48.132;-1.210;2023-07-16T06:14:47;18.42;;;7.82;;
17790;SDS011;9019;48.132;-1.210;2023-07-16T06:17:14;21.13;;;8.43;;
17790;SDS011;9019;48.132;-1.210;2023-07-16T06:19:41;19.60;;;7.85;;
17790;SDS011;9019;48.132;-1.210;2023-07-16T06:22:09;19.73;;;8.43;;
17790;SDS011;9019;48.132;-1.210;2023-07-16T06:24:37;16.52;;;8.30;;
17790;SDS011;9019;48.132;-1.210;2023-07-16T06:27:04;17.42;;;8.43;;
17790;SDS011;9019;48.132;-1.210;2023-07-16T06:29:31;19.45;;;8.30;;
17790;SDS011;9019;48.132;-1.210;2023-07-16T06:31:58;20.15;;;8.70;;
17790;SDS011;9019;48.132;-1.210;2023-07-16T06:34:26;20.05;;;9.18;;
17790;SDS011;9019;48.132;-1.210;2023-07-16T06:36:53;15.98;;;8.68;;
17790;SDS011;9019;48.132;-1.210;2023-07-16T06:39:22;24.80;;;9.60;;
17790;SDS011;9019;48.132;-1.210;2023-07-16T06:41:49;23.20;;;9.45;;
17790;SDS011;9019;48.132;-1.210;2023-07-16T06:44:16;21.55;;;9.27;;
17790;SDS011;9019;48.132;-1.210;2023-07-16T06:46:43;18.60;;;9.05;;
17790;SDS011;9019;48.132;-1.210;2023-07-16T06:49:10;21.20;;;9.07;;
17790;SDS011;9019;48.132;-1.210;2023-07-16T06:51:38;19.08;;;9.00;;
17790;SDS011;9019;48.132;-1.210;2023-07-16T06:54:06;24.83;;;9.43;;
17790;SDS011;9019;48.132;-1.210;2023-07-16T06:56:35;18.30;;;8.73;;
17790;SDS011;9019;48.132;-1.210;2023-07-16T06:59:02;20.05;;;8.77;;
17790;SDS011;9019;48.132;-1.210;2023-07-16T07:01:30;15.75;;;8.57;;
17790;SDS011;9019;48.132;-1.210;2023-07-16T07:03:57;20.10;;;8.73;;
17790;SDS011;9019;48.132;-1.210;2023-07-16T07:06:24;17.85;;;8.23;;
17790;SDS011;9019;48.132;-1.210;2023-07-16T07:08:51;17.13;;;8.45;;
17790;SDS011;9019;48.132;-1.210;2023-07-16T07:11:19;18.88;;;8.73;;
17790;SDS011;9019;48.132;-1.210;2023-07-16T07:13:47;18.17;;;8.02;;
17790;SDS011;9019;48.132;-1.210;2023-07-16T07:16:15;16.50;;;8.20;;
17790;SDS011;9019;48.132;-1.210;2023-07-16T07:18:42;11.18;;;7.18;;
17790;SDS011;9019;48.132;-1.210;2023-07-16T07:21:09;13.65;;;7.45;;
17790;SDS011;9019;48.132;-1.210;2023-07-16T07:23:37;15.43;;;7.43;;
17790;SDS011;9019;48.132;-1.210;2023-07-16T07:26:04;16.65;;;7.55;;
17790;SDS011;9019;48.132;-1.210;2023-07-16T07:28:31;13.80;;;6.57;;
17790;SDS011;9019;48.132;-1.210;2023-07-16T07:31:00;14.30;;;6.65;;
17790;SDS011;9019;48.132;-1.210;2023-07-16T07:33:27;15.48;;;7.30;;
17790;SDS011;9019;48.132;-1.210;2023-07-16T07:35:55;15.15;;;7.10;;
17790;SDS011;9019;48.132;-1.210;2023-07-16T07:38:23;17.15;;;6.97;;
17790;SDS011;9019;48.132;-1.210;2023-07-16T07:40:50;14.60;;;6.28;;
17790;SDS011;9019;48.132;-1.210;2023-07-16T07:43:17;14.65;;;6.50;;
17790;SDS011;9019;48.132;-1.210;2023-07-16T07:45:44;12.88;;;6.22;;
17790;SDS011;9019;48.132;-1.210;2023-07-16T07:48:13;13.50;;;5.80;;
17790;SDS011;9019;48.132;-1.210;2023-07-16T07:50:40;13.05;;;5.70;;
17790;SDS011;9019;48.132;-1.210;2023-07-16T07:53:07;14.35;;;6.10;;
17790;SDS011;9019;48.132;-1.210;2023-07-16T07:55:34;13.85;;;5.63;;
17790;SDS011;9019;48.132;-1.210;2023-07-16T07:58:02;11.40;;;5.97;;
17790;SDS011;9019;48.132;-1.210;2023-07-16T08:00:29;13.88;;;5.18;;
17790;SDS011;9019;48.132;-1.210;2023-07-16T08:02:56;13.90;;;5.18;;
17790;SDS011;9019;48.132;-1.210;2023-07-16T08:05:24;10.75;;;5.28;;
17790;SDS011;9019;48.132;-1.210;2023-07-16T08:07:52;10.63;;;5.13;;
17790;SDS011;9019;48.132;-1.210;2023-07-16T08:10:20;13.73;;;6.20;;
17790;SDS011;9019;48.132;-1.210;2023-07-16T08:12:48;12.80;;;6.05;;
17790;SDS011;9019;48.132;-1.210;2023-07-16T08:15:15;12.27;;;6.13;;
17790;SDS011;9019;48.132;-1.210;2023-07-16T08:17:42;11.48;;;5.75;;
17790;SDS011;9019;48.132;-1.210;2023-07-16T08:20:10;11.07;;;5.80;;
17790;SDS011;9019;48.132;-1.210;2023-07-16T08:22:39;8.18;;;5.10;;
17790;SDS011;9019;48.132;-1.210;2023-07-16T08:25:07;12.07;;;5.30;;
17790;SDS011;9019;48.132;-1.210;2023-07-16T08:27:34;12.40;;;5.57;;
17790;SDS011;9019;48.132;-1.210;2023-07-16T08:30:01;7.97;;;4.60;;
17790;SDS011;9019;48.132;-1.210;2023-07-16T08:32:29;11.77;;;4.97;;
17790;SDS011;9019;48.132;-1.210;2023-07-16T08:34:56;9.40;;;4.57;;
17790;SDS011;9019;48.132;-1.210;2023-07-16T08:37:23;12.00;;;4.55;;
17790;SDS011;9019;48.132;-1.210;2023-07-16T08:39:52;9.07;;;4.43;;
17790;SDS011;9019;48.132;-1.210;2023-07-16T08:42:19;10.18;;;4.57;;
17790;SDS011;9019;48.132;-1.210;2023-07-16T08:44:48;9.50;;;4.63;;
17790;SDS011;9019;48.132;-1.210;2023-07-16T08:47:15;7.68;;;4.50;;
17790;SDS011;9019;48.132;-1.210;2023-07-16T08:49:43;12.65;;;4.43;;
17790;SDS011;9019;48.132;-1.210;2023-07-16T08:52:18;10.52;;;4.60;;
17790;SDS011;9019;48.132;-1.210;2023-07-16T08:54:45;7.93;;;4.22;;
17790;SDS011;9019;48.132;-1.210;2023-07-16T08:57:14;11.57;;;4.90;;
17790;SDS011;9019;48.132;-1.210;2023-07-16T08:59:41;11.25;;;5.00;;
17790;SDS011;9019;48.132;-1.210;2023-07-16T09:02:09;11.73;;;5.28;;
17790;SDS011;9019;48.132;-1.210;2023-07-16T09:04:36;15.10;;;5.18;;
17790;SDS011;9019;48.132;-1.210;2023-07-16T09:07:04;9.73;;;5.10;;
17790;SDS011;9019;48.132;-1.210;2023-07-16T09:09:31;11.20;;;5.22;;
17790;SDS011;9019;48.132;-1.210;2023-07-16T09:11:58;8.25;;;4.40;;
17790;SDS011;9019;48.132;-1.210;2023-07-16T09:14:27;8.65;;;4.85;;
17790;SDS011;9019;48.132;-1.210;2023-07-16T09:16:54;11.18;;;4.78;;
17790;SDS011;9019;48.132;-1.210;2023-07-16T09:19:21;10.55;;;5.07;;
17790;SDS011;9019;48.132;-1.210;2023-07-16T09:21:49;10.10;;;4.75;;
17790;SDS011;9019;48.132;-1.210;2023-07-16T09:24:16;12.00;;;4.63;;
17790;SDS011;9019;48.132;-1.210;2023-07-16T09:26:47;7.05;;;4.30;;
17790;SDS011;9019;48.132;-1.210;2023-07-16T09:29:14;9.75;;;5.10;;
17790;SDS011;9019;48.132;-1.210;2023-07-16T09:31:52;9.93;;;4.97;;
17790;SDS011;9019;48.132;-1.210;2023-07-16T09:34:20;9.35;;;4.50;;
17790;SDS011;9019;48.132;-1.210;2023-07-16T09:36:47;9.13;;;4.85;;
17790;SDS011;9019;48.132;-1.210;2023-07-16T09:39:15;8.88;;;4.65;;
17790;SDS011;9019;48.132;-1.210;2023-07-16T09:41:43;11.52;;;5.82;;
17790;SDS011;9019;48.132;-1.210;2023-07-16T09:44:11;9.88;;;5.25;;
17790;SDS011;9019;48.132;-1.210;2023-07-16T09:46:38;13.27;;;5.60;;
17790;SDS011;9019;48.132;-1.210;2023-07-16T09:49:07;10.38;;;5.53;;
17790;SDS011;9019;48.132;-1.210;2023-07-16T09:51:35;11.77;;;5.88;;
17790;SDS011;9019;48.132;-1.210;2023-07-16T09:54:03;13.90;;;5.38;;
17790;SDS011;9019;48.132;-1.210;2023-07-16T09:56:31;12.15;;;6.22;;
17790;SDS011;9019;48.132;-1.210;2023-07-16T09:59:00;11.98;;;5.70;;
17790;SDS011;9019;48.132;-1.210;2023-07-16T10:01:28;13.43;;;6.47;;
17790;SDS011;9019;48.132;-1.210;2023-07-16T10:03:55;13.02;;;6.25;;
17790;SDS011;9019;48.132;-1.210;2023-07-16T10:06:25;13.50;;;6.20;;
17790;SDS011;9019;48.132;-1.210;2023-07-16T10:08:52;13.27;;;8.65;;
17790;SDS011;9019;48.132;-1.210;2023-07-16T10:11:20;11.75;;;6.97;;
17790;SDS011;9019;48.132;-1.210;2023-07-16T10:13:50;13.07;;;6.20;;
17790;SDS011;9019;48.132;-1.210;2023-07-16T10:16:21;12.18;;;6.15;;
17790;SDS011;9019;48.132;-1.210;2023-07-16T10:18:50;10.20;;;5.57;;
17790;SDS011;9019;48.132;-1.210;2023-07-16T10:21:22;13.13;;;5.90;;
17790;SDS011;9019;48.132;-1.210;2023-07-16T10:23:56;12.55;;;6.45;;
17790;SDS011;9019;48.132;-1.210;2023-07-16T10:26:26;11.20;;;5.80;;
17790;SDS011;9019;48.132;-1.210;2023-07-16T10:28:53;11.30;;;5.85;;
17790;SDS011;9019;48.132;-1.210;2023-07-16T10:31:21;10.55;;;5.53;;
17790;SDS011;9019;48.132;-1.210;2023-07-16T10:33:58;8.90;;;5.55;;
17790;SDS011;9019;48.132;-1.210;2023-07-16T10:36:26;10.25;;;5.25;;
17790;SDS011;9019;48.132;-1.210;2023-07-16T10:39:01;7.20;;;4.63;;
17790;SDS011;9019;48.132;-1.210;2023-07-16T10:41:28;7.97;;;4.05;;
17790;SDS011;9019;48.132;-1.210;2023-07-16T10:43:56;9.13;;;4.70;;
17790;SDS011;9019;48.132;-1.210;2023-07-16T10:46:23;9.07;;;4.72;;
17790;SDS011;9019;48.132;-1.210;2023-07-16T10:48:51;10.18;;;5.13;;
17790;SDS011;9019;48.132;-1.210;2023-07-16T10:51:24;12.02;;;5.22;;
17790;SDS011;9019;48.132;-1.210;2023-07-16T10:53:54;11.23;;;4.78;;
17790;SDS011;9019;48.132;-1.210;2023-07-16T10:56:23;9.38;;;4.80;;
17790;SDS011;9019;48.132;-1.210;2023-07-16T10:58:50;10.07;;;5.28;;
17790;SDS011;9019;48.132;-1.210;2023-07-16T11:01:17;9.27;;;4.47;;
17790;SDS011;9019;48.132;-1.210;2023-07-16T11:03:45;7.90;;;4.05;;
17790;SDS011;9019;48.132;-1.210;2023-07-16T11:06:12;7.30;;;4.50;;
17790;SDS011;9019;48.132;-1.210;2023-07-16T11:08:40;8.55;;;4.40;;
17790;SDS011;9019;48.132;-1.210;2023-07-16T11:11:08;11.88;;;5.55;;
17790;SDS011;9019;48.132;-1.210;2023-07-16T11:13:36;13.32;;;6.13;;
17790;SDS011;9019;48.132;-1.210;2023-07-16T11:16:07;7.68;;;5.10;;
17790;SDS011;9019;48.132;-1.210;2023-07-16T11:18:34;10.75;;;7.28;;
17790;SDS011;9019;48.132;-1.210;2023-07-16T11:21:01;11.63;;;7.38;;
17790;SDS011;9019;48.132;-1.210;2023-07-16T11:23:32;9.27;;;5.18;;
17790;SDS011;9019;48.132;-1.210;2023-07-16T11:26:01;7.07;;;4.35;;
17790;SDS011;9019;48.132;-1.210;2023-07-16T11:28:36;7.15;;;4.20;;
17790;SDS011;9019;48.132;-1.210;2023-07-16T11:31:09;7.38;;;4.13;;
17790;SDS011;9019;48.132;-1.210;2023-07-16T11:33:37;9.88;;;3.75;;
17790;SDS011;9019;48.132;-1.210;2023-07-16T11:36:04;6.75;;;3.42;;
17790;SDS011;9019;48.132;-1.210;2023-07-16T11:38:35;5.18;;;3.15;;
17790;SDS011;9019;48.132;-1.210;2023-07-16T11:41:03;6.95;;;3.38;;
17790;SDS011;9019;48.132;-1.210;2023-07-16T11:43:33;5.05;;;2.90;;
17790;SDS011;9019;48.132;-1.210;2023-07-16T11:46:03;4.55;;;2.50;;
17790;SDS011;9019;48.132;-1.210;2023-07-16T11:48:30;4.57;;;2.42;;
17790;SDS011;9019;48.132;-1.210;2023-07-16T11:50:57;6.30;;;2.47;;
17790;SDS011;9019;48.132;-1.210;2023-07-16T11:53:24;5.15;;;2.35;;
17790;SDS011;9019;48.132;-1.210;2023-07-16T11:55:52;4.45;;;2.50;;
17790;SDS011;9019;48.132;-1.210;2023-07-16T11:58:19;3.20;;;2.08;;
17790;SDS011;9019;48.132;-1.210;2023-07-16T12:00:46;3.85;;;2.00;;
17790;SDS011;9019;48.132;-1.210;2023-07-16T12:03:15;3.72;;;1.90;;
17790;SDS011;9019;48.132;-1.210;2023-07-16T12:05:42;4.03;;;2.05;;
17790;SDS011;9019;48.132;-1.210;2023-07-16T12:08:09;5.88;;;1.88;;
17790;SDS011;9019;48.132;-1.210;2023-07-16T12:10:39;7.20;;;1.70;;
17790;SDS011;9019;48.132;-1.210;2023-07-16T12:13:06;2.75;;;1.52;;
17790;SDS011;9019;48.132;-1.210;2023-07-16T12:15:33;3.53;;;1.52;;
17790;SDS011;9019;48.132;-1.210;2023-07-16T12:18:00;5.97;;;2.08;;
17790;SDS011;9019;48.132;-1.210;2023-07-16T12:20:29;5.75;;;1.77;;
17790;SDS011;9019;48.132;-1.210;2023-07-16T12:22:56;3.30;;;1.65;;
17790;SDS011;9019;48.132;-1.210;2023-07-16T12:25:23;3.30;;;1.27;;
17790;SDS011;9019;48.132;-1.210;2023-07-16T12:27:51;5.97;;;1.40;;
17790;SDS011;9019;48.132;-1.210;2023-07-16T12:30:18;4.15;;;1.67;;
17790;SDS011;9019;48.132;-1.210;2023-07-16T12:32:45;2.70;;;1.40;;
17790;SDS011;9019;48.132;-1.210;2023-07-16T12:35:13;3.28;;;1.40;;
17790;SDS011;9019;48.132;-1.210;2023-07-16T12:37:41;2.15;;;1.30;;
17790;SDS011;9019;48.132;-1.210;2023-07-16T12:40:09;3.95;;;1.48;;
17790;SDS011;9019;48.132;-1.210;2023-07-16T12:42:36;3.50;;;1.40;;
17790;SDS011;9019;48.132;-1.210;2023-07-16T12:45:04;4.10;;;1.40;;
17790;SDS011;9019;48.132;-1.210;2023-07-16T12:47:32;4.35;;;1.40;;
17790;SDS011;9019;48.132;-1.210;2023-07-16T12:50:00;2.40;;;1.00;;
17790;SDS011;9019;48.132;-1.210;2023-07-16T12:52:27;3.05;;;1.60;;
17790;SDS011;9019;48.132;-1.210;2023-07-16T12:54:56;3.47;;;1.42;;
17790;SDS011;9019;48.132;-1.210;2023-07-16T12:57:23;3.25;;;1.17;;
17790;SDS011;9019;48.132;-1.210;2023-07-16T12:59:50;1.60;;;0.98;;
17790;SDS011;9019;48.132;-1.210;2023-07-16T13:02:17;2.28;;;1.33;;
17790;SDS011;9019;48.132;-1.210;2023-07-16T13:04:47;3.28;;;1.30;;
17790;SDS011;9019;48.132;-1.210;2023-07-16T13:07:19;2.45;;;1.08;;
17790;SDS011;9019;48.132;-1.210;2023-07-16T13:09:48;2.97;;;1.00;;
17790;SDS011;9019;48.132;-1.210;2023-07-16T13:12:20;3.33;;;1.10;;
17790;SDS011;9019;48.132;-1.210;2023-07-16T13:14:47;2.20;;;0.98;;
17790;SDS011;9019;48.132;-1.210;2023-07-16T13:17:14;2.00;;;1.02;;
17790;SDS011;9019;48.132;-1.210;2023-07-16T13:19:44;2.63;;;1.20;;
17790;SDS011;9019;48.132;-1.210;2023-07-16T13:22:12;2.35;;;1.00;;
17790;SDS011;9019;48.132;-1.210;2023-07-16T13:24:39;3.42;;;0.95;;
17790;SDS011;9019;48.132;-1.210;2023-07-16T13:27:09;3.35;;;1.35;;
17790;SDS011;9019;48.132;-1.210;2023-07-16T13:29:37;2.88;;;0.95;;
17790;SDS011;9019;48.132;-1.210;2023-07-16T13:32:05;2.08;;;0.98;;
17790;SDS011;9019;48.132;-1.210;2023-07-16T13:34:32;2.35;;;1.00;;
17790;SDS011;9019;48.132;-1.210;2023-07-16T13:36:59;3.45;;;1.00;;
17790;SDS011;9019;48.132;-1.210;2023-07-16T13:39:27;2.85;;;0.88;;
17790;SDS011;9019;48.132;-1.210;2023-07-16T13:41:54;3.45;;;1.00;;
17790;SDS011;9019;48.132;-1.210;2023-07-16T13:44:21;2.72;;;1.00;;
17790;SDS011;9019;48.132;-1.210;2023-07-16T13:46:50;1.95;;;1.10;;
17790;SDS011;9019;48.132;-1.210;2023-07-16T13:49:17;2.35;;;1.00;;
17790;SDS011;9019;48.132;-1.210;2023-07-16T13:51:44;3.80;;;1.10;;
17790;SDS011;9019;48.132;-1.210;2023-07-16T13:54:12;2.25;;;0.80;;
17790;SDS011;9019;48.132;-1.210;2023-07-16T13:56:39;2.45;;;1.00;;
17790;SDS011;9019;48.132;-1.210;2023-07-16T13:59:06;1.75;;;0.88;;
17790;SDS011;9019;48.132;-1.210;2023-07-16T14:01:37;1.92;;;0.82;;
17790;SDS011;9019;48.132;-1.210;2023-07-16T14:04:06;2.10;;;1.00;;
17790;SDS011;9019;48.132;-1.210;2023-07-16T14:06:33;3.55;;;1.00;;
17790;SDS011;9019;48.132;-1.210;2023-07-16T14:09:01;5.35;;;1.33;;
17790;SDS011;9019;48.132;-1.210;2023-07-16T14:11:29;2.03;;;1.10;;
17790;SDS011;9019;48.132;-1.210;2023-07-16T14:13:57;3.45;;;1.45;;
17790;SDS011;9019;48.132;-1.210;2023-07-16T14:16:24;3.40;;;1.33;;
17790;SDS011;9019;48.132;-1.210;2023-07-16T14:18:52;3.15;;;1.40;;
17790;SDS011;9019;48.132;-1.210;2023-07-16T14:21:21;4.20;;;1.23;;
17790;SDS011;9019;48.132;-1.210;2023-07-16T14:23:53;3.45;;;1.52;;
17790;SDS011;9019;48.132;-1.210;2023-07-16T14:26:20;4.35;;;1.70;;
17790;SDS011;9019;48.132;-1.210;2023-07-16T14:28:47;3.53;;;1.63;;
17790;SDS011;9019;48.132;-1.210;2023-07-16T14:31:15;4.30;;;1.75;;
17790;SDS011;9019;48.132;-1.210;2023-07-16T14:33:44;5.47;;;1.88;;
17790;SDS011;9019;48.132;-1.210;2023-07-16T14:36:11;4.20;;;2.20;;
17790;SDS011;9019;48.132;-1.210;2023-07-16T14:38:40;3.80;;;1.70;;